Time;durP1;ratioP1;P1;durP2;ratioP2;P2;SDS_P1;SDS_P2;PMS_P1;PMS_P2;Temp;Humidity;BMP_temperature;BMP_pressure;BME280_temperature;BME280_humidity;BME280_pressure;Samples;Min_cycle;Max_cycle;Signal;HPM_P1;HPM_P2
2022/04/26 03:38:04;;;;;;;9.15;4.80;;;;;;;7.14;100.00;101537.31;5068354;28;20079;-52
2022/04/26 03:40:32;;;;;;;8.32;4.82;;;;;;;7.14;100.00;101542.53;5067518;28;20051;-52
2022/04/26 03:43:02;;;;;;;11.02;5.07;;;;;;;7.13;100.00;101539.97;5071253;28;20044;-51
2022/04/26 03:45:30;;;;;;;12.13;5.15;;;;;;;7.17;100.00;101538.94;5071617;28;20556;-52
2022/04/26 03:47:58;;;;;;;11.60;5.28;;;;;;;7.16;100.00;101545.94;5071400;28;20052;-52
2022/04/26 03:50:28;;;;;;;11.73;4.78;;;;;;;7.13;100.00;101542.59;5068530;28;20060;-47
2022/04/26 03:52:56;;;;;;;10.60;5.10;;;;;;;7.25;100.00;101545.59;5066945;28;20048;-51
2022/04/26 03:55:25;;;;;;;10.35;5.03;;;;;;;7.21;100.00;101545.75;5071283;28;20432;-51
2022/04/26 03:57:53;;;;;;;10.63;5.00;;;;;;;7.10;100.00;101551.41;5069017;28;20127;-49
2022/04/26 04:00:21;;;;;;;12.55;5.18;;;;;;;7.17;100.00;101549.41;5067479;28;20471;-48
2022/04/26 04:02:50;;;;;;;12.05;4.95;;;;;;;7.16;100.00;101545.94;5069923;28;20040;-50
2022/04/26 04:05:18;;;;;;;10.13;5.03;;;;;;;7.16;100.00;101553.81;5070920;28;20106;-51
2022/04/26 04:07:48;;;;;;;10.38;4.88;;;;;;;7.11;100.00;101553.13;5070863;28;20056;-51
2022/04/26 04:10:16;;;;;;;10.95;5.93;;;;;;;7.14;100.00;101547.75;5071101;28;20037;-50
2022/04/26 04:12:44;;;;;;;10.48;5.43;;;;;;;7.13;100.00;101550.44;5071046;28;20098;-53
2022/04/26 04:15:13;;;;;;;17.83;6.35;;;;;;;7.13;100.00;101546.09;5071007;28;20057;-50
2022/04/26 04:17:41;;;;;;;13.18;5.78;;;;;;;7.14;100.00;101553.00;5070799;28;20048;-52
2022/04/26 04:20:11;;;;;;;12.43;5.88;;;;;;;7.17;100.00;101552.91;5071322;28;20052;-52
2022/04/26 04:22:40;;;;;;;13.25;6.05;;;;;;;7.19;100.00;101556.28;5070515;28;20131;-53
2022/04/26 04:25:10;;;;;;;15.20;5.55;;;;;;;7.21;100.00;101567.56;5074504;28;20055;-51
2022/04/26 04:27:38;;;;;;;11.43;5.68;;;;;;;7.23;100.00;101562.25;5074637;28;20048;-49
2022/04/26 04:30:08;;;;;;;13.20;6.15;;;;;;;7.18;100.00;101570.28;5074851;28;20553;-52
2022/04/26 04:32:36;;;;;;;13.07;6.03;;;;;;;7.17;100.00;101567.72;5074833;28;20052;-50
2022/04/26 04:35:05;;;;;;;13.25;6.75;;;;;;;7.07;100.00;101567.22;5074941;28;20040;-51
2022/04/26 04:37:34;;;;;;;11.23;6.80;;;;;;;7.06;100.00;101571.63;5074781;28;20539;-50
2022/04/26 04:40:02;;;;;;;11.55;6.93;;;;;;;7.10;100.00;101569.72;5074759;28;20079;-52
2022/04/26 04:42:32;;;;;;;11.45;6.45;;;;;;;7.14;100.00;101573.94;5074778;28;20498;-48
2022/04/26 04:45:02;;;;;;;11.40;6.82;;;;;;;7.12;100.00;101575.75;5074873;28;20079;-48
2022/04/26 04:47:30;;;;;;;12.48;6.97;;;;;;;6.97;100.00;101576.34;5074792;28;20048;-51
2022/04/26 04:49:58;;;;;;;12.88;7.00;;;;;;;6.97;100.00;101578.94;5074579;28;20106;-51
2022/04/26 04:52:26;;;;;;;14.15;7.53;;;;;;;7.00;100.00;101586.69;5074572;28;20615;-51
2022/04/26 04:54:55;;;;;;;14.45;7.22;;;;;;;6.94;100.00;101588.63;5074572;28;20045;-48
2022/04/26 04:57:24;;;;;;;13.15;8.07;;;;;;;6.97;100.00;101590.28;5074409;28;20398;-52
2022/04/26 04:59:54;;;;;;;15.48;8.70;;;;;;;6.99;100.00;101585.00;5074363;28;20048;-50
2022/04/26 05:02:22;;;;;;;13.60;7.47;;;;;;;6.97;100.00;101594.63;5073973;28;20545;-49
2022/04/26 05:04:51;;;;;;;13.52;7.68;;;;;;;7.03;100.00;101597.88;5072293;28;20068;-49
2022/04/26 05:07:19;;;;;;;17.48;8.43;;;;;;;6.98;100.00;101606.81;5070226;28;20048;-50
2022/04/26 05:09:47;;;;;;;14.40;7.70;;;;;;;6.96;100.00;101608.66;5072975;28;20117;-54
2022/04/26 05:12:16;;;;;;;11.75;8.00;;;;;;;7.07;100.00;101606.47;5074141;28;20087;-53
2022/04/26 05:14:45;;;;;;;15.15;8.35;;;;;;;7.01;100.00;101610.19;5074245;28;20113;-48
2022/04/26 05:17:14;;;;;;;14.40;8.43;;;;;;;7.05;100.00;101618.78;5074237;28;20131;-52
2022/04/26 05:19:43;;;;;;;16.30;9.43;;;;;;;7.06;100.00;101618.72;5074015;28;20102;-52
2022/04/26 05:22:11;;;;;;;17.20;8.52;;;;;;;7.09;100.00;101622.97;5073895;28;20040;-52
2022/04/26 05:24:54;;;;;;;17.00;9.25;;;;;;;7.02;100.00;101618.88;5074050;28;20053;-48
2022/04/26 05:27:23;;;;;;;14.00;8.98;;;;;;;7.10;100.00;101625.53;5106927;28;20512;-48
2022/04/26 05:29:51;;;;;;;17.30;9.88;;;;;;;7.20;100.00;101623.41;5072490;28;20112;-49
2022/04/26 05:32:22;;;;;;;16.80;9.35;;;;;;;7.23;100.00;101632.91;5072298;28;20086;-49
2022/04/26 05:34:56;;;;;;;16.67;9.25;;;;;;;7.25;100.00;101629.31;5068415;28;20040;-51
2022/04/26 05:37:25;;;;;;;15.15;9.63;;;;;;;7.29;100.00;101624.81;5073305;28;20053;-53
2022/04/26 05:39:55;;;;;;;15.65;9.57;;;;;;;7.31;100.00;101628.22;5071756;28;20098;-52
2022/04/26 05:42:23;;;;;;;20.30;10.50;;;;;;;7.38;100.00;101629.69;5068745;28;20048;-50
2022/04/26 05:44:51;;;;;;;17.65;10.10;;;;;;;7.46;100.00;101632.00;5072600;28;20047;-50
2022/04/26 05:47:21;;;;;;;15.93;10.48;;;;;;;7.50;100.00;101632.72;5070965;28;20040;-49
2022/04/26 05:49:50;;;;;;;15.93;9.95;;;;;;;7.63;100.00;101633.94;5069412;28;20036;-50
2022/04/26 05:52:18;;;;;;;19.95;10.23;;;;;;;7.66;100.00;101641.66;5072398;28;20520;-50
2022/04/26 05:54:46;;;;;;;20.83;9.88;;;;;;;7.71;100.00;101646.72;5069487;28;20064;-48
2022/04/26 05:57:15;;;;;;;15.20;9.57;;;;;;;7.70;100.00;101650.25;5070535;28;20484;-48
2022/04/26 05:59:43;;;;;;;17.15;9.82;;;;;;;7.69;100.00;101659.03;5072843;28;20086;-50
2022/04/26 06:02:12;;;;;;;15.02;9.82;;;;;;;7.74;100.00;101651.84;5072852;28;20036;-49
2022/04/26 06:04:42;;;;;;;17.73;9.65;;;;;;;7.87;100.00;101652.22;5073280;28;20064;-52
2022/04/26 06:07:10;;;;;;;15.00;10.07;;;;;;;7.93;100.00;101652.81;5073362;28;20131;-49
2022/04/26 06:09:38;;;;;;;16.73;9.25;;;;;;;7.90;100.00;101658.16;5073409;28;20125;-49
2022/04/26 06:12:08;;;;;;;16.55;9.73;;;;;;;7.91;100.00;101654.63;5072996;28;20048;-49
2022/04/26 06:14:36;;;;;;;18.42;10.38;;;;;;;8.00;100.00;101661.25;5072680;28;20068;-50
2022/04/26 06:17:04;;;;;;;16.63;9.73;;;;;;;8.04;100.00;101654.97;5072657;28;20403;-52
2022/04/26 06:19:33;;;;;;;20.60;9.63;;;;;;;8.06;100.00;101658.38;5072922;28;20040;-52
2022/04/26 06:22:04;;;;;;;18.85;10.00;;;;;;;8.09;100.00;101655.63;5072893;28;20087;-52
2022/04/26 06:24:32;;;;;;;18.83;9.45;;;;;;;8.24;100.00;101646.28;5072990;28;20110;-49
2022/04/26 06:27:02;;;;;;;18.55;8.90;;;;;;;8.20;100.00;101654.34;5072787;28;20373;-50
2022/04/26 06:29:31;;;;;;;13.65;7.95;;;;;;;8.15;100.00;101662.38;5072783;28;20135;-50
2022/04/26 06:31:59;;;;;;;18.25;9.32;;;;;;;8.11;100.00;101660.81;5071338;28;20090;-51
2022/04/26 06:34:28;;;;;;;16.08;8.25;;;;;;;8.18;100.00;101662.28;5068117;28;20040;-51
2022/04/26 06:36:56;;;;;;;16.83;8.63;;;;;;;8.14;100.00;101652.84;5070302;28;20041;-48
2022/04/26 06:39:26;;;;;;;17.08;9.10;;;;;;;8.25;100.00;101661.09;5072690;28;20094;-46
2022/04/26 06:41:54;;;;;;;16.13;10.40;;;;;;;8.23;100.00;101657.66;5073097;28;20060;-49
2022/04/26 06:44:24;;;;;;;14.52;8.38;;;;;;;8.28;100.00;101674.06;5072370;28;20368;-51
2022/04/26 06:46:52;;;;;;;13.55;7.78;;;;;;;8.32;100.00;101679.16;5070654;28;20048;-50
2022/04/26 06:49:21;;;;;;;15.77;9.55;;;;;;;8.31;100.00;101669.63;5068913;28;20396;-51
2022/04/26 06:51:49;;;;;;;21.25;11.88;;;;;;;8.38;100.00;101676.28;5070753;28;20048;-49
2022/04/26 06:54:17;;;;;;;17.23;9.02;;;;;;;8.44;100.00;101674.25;5072118;28;20052;-50
2022/04/26 06:56:47;;;;;;;16.13;8.68;;;;;;;8.57;100.00;101676.38;5072237;28;20049;-52
2022/04/26 06:59:15;;;;;;;14.63;8.15;;;;;;;8.64;100.00;101690.91;5072059;28;20059;-52
2022/04/26 07:01:44;;;;;;;15.18;8.10;;;;;;;8.71;100.00;101691.50;5072589;28;20091;-51
2022/04/26 07:04:13;;;;;;;14.77;8.02;;;;;;;8.67;100.00;101692.56;5069810;28;20048;-51
2022/04/26 07:06:41;;;;;;;14.68;8.68;;;;;;;8.68;100.00;101687.25;5067802;28;20051;-53
2022/04/26 07:09:10;;;;;;;12.60;8.20;;;;;;;8.81;100.00;101695.44;5071848;28;20064;-52
2022/04/26 07:11:38;;;;;;;17.88;8.52;;;;;;;8.91;100.00;101699.34;5071926;28;20076;-52
2022/04/26 07:14:08;;;;;;;16.13;8.48;;;;;;;9.02;100.00;101700.66;5071792;28;20049;-50
2022/04/26 07:16:48;;;;;;;15.55;8.38;;;;;;;9.03;100.00;101690.09;5071784;28;20131;-52
2022/04/26 07:19:18;;;;;;;14.68;8.50;;;;;;;9.03;100.00;101713.69;5071618;28;20037;-52
2022/04/26 07:21:47;;;;;;;14.82;7.72;;;;;;;9.06;100.00;101707.47;5071896;28;20059;-48
2022/04/26 07:24:31;;;;;;;17.10;8.45;;;;;;;9.09;99.68;101705.56;5069431;28;20080;-52
2022/04/26 07:27:00;;;;;;;16.38;8.27;;;;;;;9.00;100.00;101707.72;5065855;28;20131;-49
2022/04/26 07:29:30;;;;;;;13.52;8.00;;;;;;;9.11;100.00;101706.34;5070828;28;20113;-49
2022/04/26 07:31:59;;;;;;;14.20;7.63;;;;;;;9.18;100.00;101706.06;5072100;28;20094;-50
2022/04/26 07:34:26;;;;;;;13.38;7.65;;;;;;;9.40;100.00;101709.38;5071369;28;20041;-52
2022/04/26 07:36:59;;;;;;;15.68;8.52;;;;;;;9.39;99.36;101704.22;5067258;28;20098;-51
2022/04/26 07:39:27;;;;;;;;;;;;;;;9.45;98.57;101702.16;5069916;28;20412;-48
2022/04/26 07:41:56;;;;;;;14.10;8.82;;;;;;;9.51;97.15;101710.69;5071284;28;19921;-49
2022/04/26 07:44:24;;;;;;;17.85;7.90;;;;;;;9.60;96.54;101716.34;5067462;28;20075;-50
2022/04/26 07:46:56;;;;;;;15.52;7.88;;;;;;;9.59;96.16;101714.63;5068142;28;20048;-48
2022/04/26 07:49:26;;;;;;;13.98;7.85;;;;;;;9.60;96.26;101708.47;5070284;28;20394;-48
2022/04/26 07:51:55;;;;;;;14.38;7.43;;;;;;;9.74;94.92;101720.09;5071271;28;20080;-50
2022/04/26 07:54:23;;;;;;;15.57;9.07;;;;;;;9.90;95.26;101717.59;5071310;28;20487;-54
2022/04/26 07:56:52;;;;;;;14.35;7.43;;;;;;;9.95;94.46;101718.19;5071244;28;20106;-51
2022/04/26 07:59:20;;;;;;;11.88;7.55;;;;;;;10.06;92.87;101722.94;5070216;28;20051;-51
2022/04/26 08:01:48;;;;;;;15.15;7.68;;;;;;;10.25;93.07;101731.63;5066935;28;20133;-49
2022/04/26 08:04:18;;;;;;;12.65;7.00;;;;;;;10.28;92.17;101731.47;5069112;28;20079;-51
2022/04/26 08:06:46;;;;;;;13.35;7.70;;;;;;;10.37;92.17;101734.59;5071180;28;20398;-50
2022/04/26 08:09:15;;;;;;;14.02;6.80;;;;;;;10.58;91.65;101733.50;5071074;28;20098;-49
2022/04/26 08:11:43;;;;;;;15.32;7.18;;;;;;;10.79;91.40;101726.28;5071274;28;20044;-49
2022/04/26 08:14:12;;;;;;;13.57;6.60;;;;;;;11.03;91.04;101732.97;5069617;28;20044;-52
2022/04/26 08:16:40;;;;;;;19.90;10.82;;;;;;;11.21;88.79;101739.03;5067417;28;20049;-53
2022/04/26 08:19:10;;;;;;;13.18;6.82;;;;;;;11.40;88.41;101731.84;5069535;28;20087;-52
2022/04/26 08:21:41;;;;;;;13.70;6.88;;;;;;;11.76;87.75;101737.81;5071474;28;20106;-53
2022/04/26 08:29:41;;;;;;;12.73;6.07;;;;;;;11.92;80.84;101753.63;5067091;28;20056;-54
2022/04/26 08:32:09;;;;;;;9.18;5.30;;;;;;;12.00;81.11;101746.16;5070587;28;20033;-53
2022/04/26 08:34:38;;;;;;;15.15;6.18;;;;;;;12.25;78.63;101756.13;5071072;28;20052;-52
2022/04/26 08:37:08;;;;;;;12.38;6.00;;;;;;;12.55;79.21;101750.00;5071158;28;20495;-53
2022/04/26 08:39:37;;;;;;;9.63;4.82;;;;;;;12.89;77.40;101757.72;5071120;28;20053;-52
2022/04/26 08:42:06;;;;;;;14.23;5.00;;;;;;;12.78;74.92;101758.34;5071090;28;20045;-52
2022/04/26 08:44:35;;;;;;;11.77;5.03;;;;;;;12.92;75.85;101758.34;5070589;28;20487;-50
2022/04/26 08:52:49;;;;;;;10.40;5.82;;;;;;;13.11;72.07;101766.00;5069047;28;20044;-52
2022/04/26 08:55:19;;;;;;;9.23;4.57;;;;;;;12.93;71.43;101778.53;5070289;28;20117;-52
2022/04/26 08:57:48;;;;;;;10.15;4.93;;;;;;;12.97;73.01;101771.28;5102840;28;20044;-53
2022/04/26 09:00:17;;;;;;;10.13;4.43;;;;;;;13.23;71.91;101769.69;5068716;28;20077;-52
2022/04/26 09:03:00;;;;;;;9.85;5.03;;;;;;;13.32;69.40;101777.06;5066079;28;20060;-51
2022/04/26 09:05:30;;;;;;;10.68;4.70;;;;;;;13.19;68.72;101776.13;5069902;28;20032;-53
2022/04/26 09:07:59;;;;;;;14.27;5.00;;;;;;;13.41;70.08;101780.94;5065893;28;20572;-51
2022/04/26 09:10:29;;;;;;;10.13;4.18;;;;;;;13.64;67.48;101783.94;5069523;28;20572;-53
2022/04/26 09:13:07;;;;;;;9.10;4.50;;;;;;;13.57;63.64;101799.34;5073726;28;20040;-50
2022/04/26 09:15:38;;;;;;;12.63;5.60;;;;;;;13.46;64.76;101805.28;5074219;28;20430;-50
2022/04/26 09:18:15;;;;;;;9.40;4.85;;;;;;;13.57;63.79;101798.50;5073977;28;20369;-49
2022/04/26 09:20:45;;;;;;;9.30;4.65;;;;;;;13.83;63.06;101792.38;5070131;28;20055;-52
2022/04/26 09:23:22;;;;;;;10.38;4.20;;;;;;;13.77;61.16;101792.81;5071669;28;20053;-49
2022/04/26 09:25:54;;;;;;;8.55;4.15;;;;;;;14.05;60.07;101795.47;5071372;28;20102;-51
2022/04/26 09:28:27;;;;;;;11.68;4.18;;;;;;;14.15;61.45;101788.63;5069050;28;20055;-52
2022/04/26 09:30:57;;;;;;;10.80;3.83;;;;;;;14.50;59.07;101806.63;5072891;28;20135;-53
2022/04/26 09:33:40;;;;;;;8.20;3.40;;;;;;;14.38;59.44;101797.69;5071023;28;20041;-51
2022/04/26 09:36:10;;;;;;;9.32;3.92;;;;;;;14.42;59.43;101801.81;5072612;28;20083;-52
2022/04/26 09:38:42;;;;;;;8.90;3.47;;;;;;;14.54;58.54;101801.00;5073885;28;20591;-51
2022/04/26 09:41:10;;;;;;;10.15;3.58;;;;;;;14.40;58.21;101798.44;5072367;28;20098;-52
2022/04/26 09:43:39;;;;;;;7.82;3.78;;;;;;;14.61;58.02;101805.91;5073678;28;20045;-48
2022/04/26 09:46:08;;;;;;;9.38;3.72;;;;;;;14.59;58.84;101811.31;5073610;28;20047;-47
2022/04/26 09:48:38;;;;;;;9.32;3.90;;;;;;;14.66;59.72;101809.97;5072250;28;20051;-48
2022/04/26 09:51:08;;;;;;;14.15;5.13;;;;;;;14.90;61.21;101811.88;5074119;28;20084;-51
2022/04/26 09:53:36;;;;;;;12.07;3.85;;;;;;;14.75;58.73;101811.16;5073419;28;20141;-50
2022/04/26 09:56:06;;;;;;;11.63;4.18;;;;;;;14.88;59.37;101812.00;5068123;28;20046;-50
2022/04/26 09:58:50;;;;;;;9.27;4.50;;;;;;;14.43;59.15;101823.84;5070422;28;20056;-53
2022/04/26 10:01:20;;;;;;;9.98;3.80;;;;;;;14.72;59.33;101813.16;5071052;28;20125;-52
2022/04/26 10:03:53;;;;;;;9.25;3.78;;;;;;;14.43;59.00;101824.69;5069114;28;20080;-53
2022/04/26 10:06:25;;;;;;;9.52;4.05;;;;;;;14.68;59.67;101826.59;5073187;28;20106;-55
2022/04/26 10:08:55;;;;;;;7.20;3.53;;;;;;;15.08;58.68;101830.13;5073312;28;20433;-53
2022/04/26 10:11:26;;;;;;;9.73;4.15;;;;;;;15.34;56.92;101829.19;5072733;28;20131;-52
2022/04/26 10:13:55;;;;;;;8.05;3.90;;;;;;;15.43;57.02;101827.69;5072763;28;20040;-50
2022/04/26 10:16:24;;;;;;;10.77;4.00;;;;;;;15.65;55.81;101826.16;5072467;28;20472;-52
2022/04/26 10:19:02;;;;;;;10.50;3.78;;;;;;;15.67;55.64;101827.75;5068892;28;20051;-54
2022/04/26 10:21:48;;;;;;;8.02;3.85;;;;;;;15.49;52.82;101831.72;5069691;28;20048;-53
2022/04/26 10:24:20;;;;;;;9.52;3.78;;;;;;;15.75;52.66;101824.56;5072710;28;20049;-50
2022/04/26 10:26:51;;;;;;;10.23;3.77;;;;;;;15.98;52.48;101828.25;5072773;28;20131;-52
2022/04/26 10:29:23;;;;;;;7.03;3.88;;;;;;;16.09;52.98;101831.91;5072667;28;20068;-52
2022/04/26 10:31:59;;;;;;;8.02;4.10;;;;;;;16.43;53.00;101824.97;5072804;28;20114;-53
2022/04/26 10:34:30;;;;;;;8.80;3.60;;;;;;;16.61;51.64;101822.75;5072682;28;20047;-49
2022/04/26 10:37:01;;;;;;;8.05;3.70;;;;;;;16.70;50.35;101832.66;5069813;28;20054;-52
2022/04/26 10:39:31;;;;;;;9.23;3.70;;;;;;;17.07;50.24;101842.34;5069293;28;20056;-52
2022/04/26 10:42:07;;;;;;;8.95;4.28;;;;;;;16.99;50.08;101829.63;5071210;28;20125;-54
2022/04/26 10:44:42;;;;;;;9.63;3.95;;;;;;;16.72;48.42;101832.56;5069534;28;20059;-55
2022/04/26 10:47:27;;;;;;;7.10;3.90;;;;;;;16.71;46.99;101838.81;5072415;28;20051;-52
2022/04/26 10:49:58;;;;;;;7.10;4.05;;;;;;;17.09;47.15;101837.72;5072528;28;20479;-51
2022/04/26 10:52:43;;;;;;;8.57;3.65;;;;;;;17.35;48.87;101849.00;5072609;28;20131;-52
2022/04/26 10:55:14;;;;;;;5.72;3.42;;;;;;;17.56;46.26;101850.94;5071100;28;20049;-51
2022/04/26 10:57:50;;;;;;;8.57;3.70;;;;;;;17.82;44.68;101848.00;5067120;28;20041;-51
2022/04/26 11:00:29;;;;;;;7.18;3.38;;;;;;;17.77;44.38;101852.88;5071854;28;20173;-51
2022/04/26 11:03:03;;;;;;;6.07;3.20;;;;;;;17.84;43.61;101854.06;5072523;28;20048;-52
2022/04/26 11:05:33;;;;;;;8.93;3.45;;;;;;;18.00;43.51;101857.22;5072017;28;20040;-52
2022/04/26 11:08:05;;;;;;;7.85;3.60;;;;;;;18.33;43.30;101844.78;5072155;28;20048;-50
2022/04/26 11:13:22;;;;;;;7.60;3.50;;;;;;;18.53;43.29;101853.78;5067837;28;20483;-51
2022/04/26 11:16:06;;;;;;;7.97;3.40;;;;;;;18.93;42.78;101852.28;5071910;28;20052;-51
2022/04/26 11:18:35;;;;;;;7.53;3.03;;;;;;;18.72;41.60;101849.59;5072090;28;20425;-51
2022/04/26 11:21:03;;;;;;;7.60;3.50;;;;;;;18.55;41.08;101848.31;5072112;28;20041;-51
2022/04/26 11:29:27;;;;;;;8.10;2.85;;;;;;;17.64;40.63;101851.19;5068209;28;20128;-55
2022/04/26 11:31:56;;;;;;;6.95;3.50;;;;;;;17.47;41.20;101852.50;5071791;28;20072;-53
2022/04/26 11:34:46;;;;;;;6.90;3.15;;;;;;;17.65;41.27;101852.84;5071395;28;20492;-51
2022/04/26 11:37:15;;;;;;;5.97;3.28;;;;;;;17.86;41.15;101854.78;5071971;28;20519;-53
2022/04/26 11:39:44;;;;;;;6.88;3.08;;;;;;;18.06;41.85;101856.72;5071402;28;20503;-53
2022/04/26 11:42:13;;;;;;;6.30;3.30;;;;;;;17.74;41.53;101853.97;5070896;28;20123;-51
2022/04/26 11:44:59;;;;;;;7.57;3.35;;;;;;;18.07;41.86;101855.72;5068701;28;20509;-52
2022/04/26 11:47:42;;;;;;;8.48;4.03;;;;;;;17.67;42.88;101858.91;5069689;28;20124;-53
2022/04/26 11:50:16;;;;;;;6.72;3.17;;;;;;;17.35;43.92;101870.25;5071338;28;20048;-49
2022/04/26 11:52:45;;;;;;;6.97;3.30;;;;;;;17.48;43.61;101859.53;5071618;28;20047;-48
2022/04/26 11:55:22;;;;;;;8.95;3.58;;;;;;;17.52;43.05;101860.97;5071703;28;20115;-50
2022/04/26 11:57:51;;;;;;;11.63;4.15;;;;;;;17.02;44.76;101869.25;5071441;28;20051;-51
2022/04/26 12:00:22;;;;;;;7.60;3.92;;;;;;;17.11;44.22;101873.03;5068830;28;20549;-49
2022/04/26 12:02:51;;;;;;;10.73;4.22;;;;;;;17.09;43.66;101877.59;5067733;28;20044;-52
2022/04/26 12:05:22;;;;;;;7.57;3.63;;;;;;;17.11;42.72;101869.50;5071371;28;20045;-50
2022/04/26 12:07:51;;;;;;;8.00;4.00;;;;;;;16.80;44.13;101877.13;5070990;28;20048;-52
2022/04/26 12:10:30;;;;;;;10.02;4.38;;;;;;;16.85;44.43;101867.84;5071234;28;20474;-53
2022/04/26 12:13:00;;;;;;;14.45;4.97;;;;;;;16.81;44.89;101866.41;5071459;28;20041;-50
2022/04/26 12:15:31;;;;;;;8.13;3.53;;;;;;;16.80;44.96;101867.34;5071201;28;20052;-50
2022/04/26 12:18:14;;;;;;;6.00;3.20;;;;;;;16.80;44.48;101863.84;5071333;28;20135;-52
2022/04/26 12:21:00;;;;;;;7.72;3.80;;;;;;;16.66;44.85;101871.06;5071396;28;20049;-51
2022/04/26 12:23:30;;;;;;;7.50;3.13;;;;;;;16.87;46.62;101862.41;5071182;28;20407;-50
2022/04/26 12:26:03;;;;;;;7.95;3.60;;;;;;;17.08;44.10;101854.63;5067061;28;20080;-54
2022/04/26 12:28:31;;;;;;;6.85;3.72;;;;;;;16.86;43.65;101863.38;5068175;28;20119;-50
2022/04/26 12:31:02;;;;;;;7.40;4.20;;;;;;;16.71;44.04;101860.94;5071266;28;20116;-55
2022/04/26 12:33:34;;;;;;;9.30;3.88;;;;;;;17.18;43.75;101868.09;5071372;28;20434;-53
2022/04/26 12:36:04;;;;;;;9.68;3.63;;;;;;;17.64;43.18;101861.84;5071058;28;20048;-54
2022/04/26 12:38:46;;;;;;;7.93;3.63;;;;;;;17.77;42.34;101864.34;5068110;28;20384;-55
2022/04/26 12:41:17;;;;;;;6.88;3.33;;;;;;;17.55;42.82;101863.38;5069350;28;20506;-53
2022/04/26 12:43:47;;;;;;;7.03;3.67;;;;;;;18.25;41.92;101852.53;5071189;28;20117;-53
2022/04/26 12:46:17;;;;;;;8.13;4.03;;;;;;;18.00;41.43;101861.69;5074831;28;20067;-53
2022/04/26 12:51:54;;;;;;;9.75;3.45;;;;;;;18.69;39.10;101849.81;5074743;28;20048;-54
2022/04/26 12:54:22;;;;;;;9.50;3.83;;;;;;;19.10;38.70;101850.81;5075146;28;20048;-53
2022/04/26 12:56:57;;;;;;;7.60;3.60;;;;;;;19.22;37.26;101849.78;5074341;28;20029;-51
2022/04/26 12:59:34;;;;;;;8.30;3.47;;;;;;;19.54;37.13;101837.28;5074665;28;20139;-52
2022/04/26 13:02:06;;;;;;;7.22;3.30;;;;;;;20.02;37.41;101839.28;5075099;28;20052;-54
2022/04/26 13:04:35;;;;;;;7.45;3.47;;;;;;;20.33;36.90;101832.97;5074379;28;20131;-52
2022/04/26 13:07:05;;;;;;;7.28;3.10;;;;;;;19.56;37.26;101836.16;5073631;28;20094;-53
2022/04/26 13:09:36;;;;;;;6.85;2.95;;;;;;;20.50;36.71;101840.28;5073439;28;20052;-53
2022/04/26 13:12:05;;;;;;;6.60;2.70;;;;;;;20.61;36.07;101831.28;5066786;28;20051;-54
2022/04/26 13:14:34;;;;;;;9.05;3.10;;;;;;;20.61;34.59;101841.97;5072413;28;20109;-54
2022/04/26 13:17:13;;;;;;;5.80;3.00;;;;;;;19.54;36.23;101835.47;5074663;28;20469;-53
2022/04/26 13:19:42;;;;;;;7.43;3.33;;;;;;;19.61;36.10;101834.94;5074111;28;20045;-53
2022/04/26 13:22:10;;;;;;;8.82;3.20;;;;;;;19.85;35.28;101842.59;5073998;28;20056;-53
2022/04/26 13:24:38;;;;;;;6.20;3.00;;;;;;;20.21;34.38;101822.44;5074124;28;20391;-52
2022/04/26 13:27:07;;;;;;;7.85;2.95;;;;;;;20.39;34.18;101830.59;5074095;28;20050;-54
2022/04/26 13:29:35;;;;;;;6.03;2.83;;;;;;;20.42;33.21;101827.66;5072237;28;20537;-53
2022/04/26 13:32:05;;;;;;;6.65;2.83;;;;;;;20.73;33.77;101824.00;5070343;28;20047;-53
2022/04/26 13:34:34;;;;;;;7.28;2.47;;;;;;;20.82;33.45;101822.28;5073386;28;20044;-52
2022/04/26 13:37:12;;;;;;;7.50;2.95;;;;;;;21.19;32.61;101822.31;5074050;28;20087;-55
2022/04/26 13:39:41;;;;;;;7.13;2.60;;;;;;;21.15;32.92;101820.09;5072670;28;20052;-54
2022/04/26 13:42:11;;;;;;;5.80;2.63;;;;;;;20.85;33.19;101825.50;5068591;28;20582;-55
2022/04/26 13:44:40;;;;;;;5.45;2.53;;;;;;;21.34;32.61;101821.84;5072242;28;20049;-54
2022/04/26 13:47:08;;;;;;;7.00;3.17;;;;;;;20.92;33.11;101831.13;5073761;28;20049;-51
2022/04/26 13:49:39;;;;;;;6.55;3.08;;;;;;;20.72;33.86;101839.19;5073947;28;20434;-53
2022/04/26 13:52:09;;;;;;;6.50;2.78;;;;;;;20.51;33.25;101827.78;5073720;28;20156;-56
2022/04/26 13:54:38;;;;;;;7.50;2.83;;;;;;;20.85;32.58;101835.38;5071622;28;20110;-54
2022/04/26 13:57:06;;;;;;;5.20;2.50;;;;;;;20.47;33.35;101837.91;5067651;28;20044;-54
2022/04/26 13:59:36;;;;;;;7.63;2.55;;;;;;;20.33;34.24;101843.66;5073182;28;20050;-55
2022/04/26 14:02:07;;;;;;;6.07;2.60;;;;;;;20.30;33.35;101839.47;5073282;28;20072;-53
2022/04/26 14:04:35;;;;;;;6.70;2.58;;;;;;;20.04;33.62;101834.66;5073449;28;20052;-55
2022/04/26 14:07:05;;;;;;;6.47;2.67;;;;;;;20.21;33.89;101838.44;5073136;28;20403;-53
2022/04/26 14:09:34;;;;;;;4.35;2.20;;;;;;;20.06;34.27;101831.84;5072365;28;20062;-55
2022/04/26 14:12:04;;;;;;;4.22;2.65;;;;;;;19.73;33.92;101836.53;5073070;28;20087;-56
2022/04/26 14:23:02;;;;;;;21.48;3.72;;;;;;;18.96;35.75;101843.19;5072950;28;20048;-54
2022/04/26 14:25:31;;;;;;;7.40;2.60;;;;;;;19.14;34.30;101846.09;5072912;28;20043;-55
2022/04/26 14:27:59;;;;;;;5.65;2.40;;;;;;;18.98;35.06;101835.88;5072801;28;20407;-52
2022/04/26 14:30:27;;;;;;;6.25;2.75;;;;;;;18.60;36.00;101846.13;5073036;28;20139;-55
2022/04/26 14:33:08;;;;;;;7.50;2.30;;;;;;;18.65;35.24;101840.41;5068573;28;20048;-54
2022/04/26 14:35:36;;;;;;;5.47;2.40;;;;;;;18.57;35.33;101846.41;5069602;28;20147;-53
2022/04/26 14:38:07;;;;;;;5.57;2.47;;;;;;;18.68;34.55;101843.66;5072782;28;20484;-57
2022/04/26 14:40:35;;;;;;;6.60;2.45;;;;;;;18.89;35.54;101840.19;5072582;28;20523;-53
2022/04/26 14:43:23;;;;;;;5.43;2.40;;;;;;;18.81;35.33;101839.97;5072405;28;20123;-55
2022/04/26 14:45:54;;;;;;;6.38;2.38;;;;;;;18.50;35.27;101850.50;5066478;28;20040;-53
2022/04/26 14:48:24;;;;;;;5.80;2.42;;;;;;;18.83;35.96;101846.84;5069862;28;20080;-54
2022/04/26 14:50:56;;;;;;;6.83;2.93;;;;;;;18.32;36.17;101851.06;5072486;28;20040;-54
2022/04/26 14:53:26;;;;;;;5.93;2.72;;;;;;;18.40;35.60;101851.28;5072360;28;20556;-52
2022/04/26 14:56:10;;;;;;;5.05;2.42;;;;;;;18.20;36.17;101852.06;5070617;28;20140;-57
2022/04/26 14:59:00;;;;;;;5.88;2.67;;;;;;;18.32;36.55;101859.03;5067660;28;20120;-56
2022/04/26 15:01:36;;;;;;;5.70;2.25;;;;;;;18.11;35.53;101867.00;5070685;28;20052;-53
2022/04/26 15:04:05;;;;;;;5.55;2.55;;;;;;;17.70;36.45;101865.81;5072005;28;20051;-54
2022/04/26 15:06:33;;;;;;;5.72;2.60;;;;;;;17.68;36.01;101863.28;5067417;28;20121;-53
2022/04/26 15:16:37;;;;;;;5.25;2.25;;;;;;;17.64;36.35;101866.28;5068065;28;20620;-55
2022/04/26 15:17:24;;;;;;;6.30;2.50;;;;;;;17.56;37.56;101858.91;5071357;28;20048;-52
2022/04/26 15:19:52;;;;;;;5.78;2.35;;;;;;;17.40;37.60;101868.09;5070236;28;20044;-49
2022/04/26 15:22:22;;;;;;;5.78;2.60;;;;;;;17.31;38.18;101870.63;5072002;28;20055;-51
2022/04/26 15:24:54;;;;;;;6.90;2.40;;;;;;;17.34;37.86;101860.63;5068177;28;20486;-53
2022/04/26 15:27:22;;;;;;;4.88;2.10;;;;;;;17.49;37.49;101860.38;5066609;28;20474;-53
2022/04/26 15:29:51;;;;;;;5.80;2.58;;;;;;;17.49;37.44;101860.38;5069710;28;20519;-54
2022/04/26 15:32:23;;;;;;;5.70;2.42;;;;;;;16.98;38.74;101862.47;5066972;28;20707;-53
2022/04/26 15:34:52;;;;;;;7.38;2.83;;;;;;;16.96;38.96;101863.53;5069828;28;20048;-55
2022/04/26 15:37:20;;;;;;;5.80;2.63;;;;;;;16.74;39.65;101862.47;5072186;28;20445;-56
2022/04/26 15:39:48;;;;;;;5.45;2.30;;;;;;;16.52;40.98;101874.75;5072171;28;20120;-54
2022/04/26 15:42:19;;;;;;;5.60;2.72;;;;;;;16.48;40.74;101865.28;5069703;28;20068;-53
2022/04/26 15:44:47;;;;;;;7.13;2.67;;;;;;;16.62;40.32;101866.06;5067010;28;20514;-49
2022/04/26 15:47:16;;;;;;;5.85;2.70;;;;;;;16.33;40.86;101864.63;5068304;28;20135;-51
2022/04/26 15:49:45;;;;;;;4.88;2.63;;;;;;;16.34;42.12;101871.59;5071746;28;20395;-53
2022/04/26 15:52:13;;;;;;;5.00;2.47;;;;;;;16.02;42.70;101879.25;5071852;28;20044;-54